Flag for Georgia

Past Weather in Rustavi, Georgia — Yesterday and Last 2 Weeks

Currently: 39 °F. Clear. (Weather station: Tbilisi, Georgia). See more current weather

Past Weather in Rustavi — Graph

°F

Rustavi Temperature Yesterday

Maximum temperature yesterday: 45 °F (at 1:30 pm)
Minimum temperature yesterday: 30 °F (at 5:30 am)
Average temperature yesterday: 38 °F

High & Low Weather Summary for the Past Weeks

 TemperatureHumidityPressure
High55 °F (Nov 17, 2:00 pm)100% (Nov 18, 6:00 pm)30.60 "Hg (Nov 18, 6:00 pm)
Low30 °F (Nov 24, 6:30 am)43% (Nov 23, 1:00 pm)30.09 "Hg (Nov 25, 1:00 pm)
Average42 °F76%30.33 "Hg
* Reported Nov 14 11:00 pm — Nov 29 11:30 pm, Rustavi. Weather by CustomWeather, © 2020

Note: Actual official high and low records may vary slightly from our data, if they occured in-between our weather recording intervals... More about our weather records

Rustavi Weather History for the Previous 24 Hours

Scroll right to see more
 ConditionsComfort  
Time TempWeatherWind HumidityBarometerVisibility
11:30 pm
Sun, Nov 29
41 °FClear.8 mph76%30.30 "Hg5 mi
11:00 pm39 °FClear.8 mph87%30.33 "Hg4 mi
10:30 pm39 °FClear.7 mph81%30.33 "Hg4 mi
10:00 pm39 °FClear.5 mph87%30.33 "Hg4 mi
9:30 pm41 °FClear.8 mph81%30.30 "Hg5 mi
9:00 pm43 °FClear.1 mph76%30.30 "Hg10 mi
8:30 pm43 °FPassing clouds.5 mph76%30.30 "HgN/A
8:00 pm41 °FPassing clouds.5 mph81%30.33 "Hg5 mi
7:30 pm41 °FPassing clouds.5 mph81%30.33 "Hg4 mi
7:00 pm41 °FClear.5 mph76%30.33 "Hg4 mi
6:30 pm41 °FClear.3 mph81%30.33 "Hg5 mi
6:00 pm41 °FClear.No wind76%30.36 "Hg4 mi
5:30 pm41 °FClear.5 mph81%30.33 "Hg5 mi
5:00 pm43 °FClear.No wind71%30.36 "Hg6 mi
4:30 pm43 °FClear.No wind71%30.36 "Hg6 mi
4:00 pm43 °FClear.2 mph71%30.36 "Hg6 mi
3:30 pm45 °FSunny.1 mph66%30.36 "Hg10 mi
3:00 pm45 °FPassing clouds.3 mph66%30.36 "HgN/A
2:30 pm45 °FPassing clouds.3 mph66%30.36 "HgN/A
2:00 pm45 °FClear.3 mph66%30.36 "Hg5 mi
1:30 pm45 °FClear.2 mph66%30.36 "Hg6 mi
1:00 pm43 °FClear.3 mph71%30.39 "Hg6 mi
12:30 pm43 °FPassing clouds.3 mph71%30.39 "HgN/A
12:00 pm43 °FSunny.2 mph71%30.39 "Hg10 mi
11:30 am41 °FClear.2 mph81%30.42 "Hg4 mi
10:30 am37 °FClear.2 mph81%30.42 "Hg6 mi
10:00 am36 °FClear.2 mph87%30.42 "Hg4 mi
9:30 am34 °FClear.2 mph87%30.42 "Hg5 mi
9:00 am30 °FClear.1 mph93%30.42 "Hg5 mi
8:30 am32 °FClear.No wind93%30.42 "Hg6 mi
8:00 am32 °FClear.No wind87%30.42 "Hg6 mi
7:30 am32 °FClear.No wind87%30.42 "Hg10 mi
7:00 am30 °FClear.No wind93%30.42 "Hg10 mi
6:30 am32 °FClear.2 mph87%30.45 "Hg10 mi
6:00 am30 °FPassing clouds.3 mph86%30.45 "HgN/A
5:30 am30 °FClear.5 mph93%30.45 "Hg10 mi
5:00 am32 °FClear.No wind87%30.45 "Hg10 mi
4:30 am32 °FClear.3 mph87%30.45 "Hg10 mi
4:00 am34 °FPassing clouds.3 mph81%30.45 "HgN/A
3:30 am34 °FClear.3 mph87%30.45 "Hg10 mi
3:00 am32 °FClear.No wind87%30.45 "Hg10 mi
2:30 am32 °FClear.No wind87%30.45 "Hg10 mi
2:00 am32 °FClear.2 mph87%30.48 "Hg10 mi
1:30 am34 °FClear.2 mph87%30.48 "Hg10 mi
1:00 am34 °FClear.3 mph87%30.48 "Hg10 mi
12:30 am34 °FClear.5 mph87%30.48 "Hg10 mi
12:00 am36 °FClear.2 mph81%30.48 "Hg10 mi
Weather by CustomWeather, © 2020

See weather overview